Time;durP1;ratioP1;P1;durP2;ratioP2;P2;SDS_P1;SDS_P2;PMS_P1;PMS_P2;Temp;Humidity;BMP_temperature;BMP_pressure;BME280_temperature;BME280_humidity;BME280_pressure;Samples;Min_cycle;Max_cycle;Signal;HPM_P1;HPM_P2
2023/08/13 00:00:33;;;;;;;3.90;2.10;;;;;;;21.26;100.00;96585.09;5064991;28;20697;-72
2023/08/13 00:03:00;;;;;;;7.20;1.92;;;;;;;21.24;100.00;96576.44;5064584;28;20227;-71
2023/08/13 00:05:28;;;;;;;4.80;2.00;;;;;;;21.33;100.00;96578.53;5064584;28;20224;-72
2023/08/13 00:07:54;;;;;;;2.67;2.00;;;;;;;21.13;100.00;96575.41;5060412;28;20201;-72
2023/08/13 00:10:21;;;;;;;3.30;1.75;;;;;;;21.20;100.00;96573.41;5065128;28;20197;-72
2023/08/13 00:12:48;;;;;;;5.70;2.22;;;;;;;21.16;100.00;96571.44;5062969;28;20588;-72
2023/08/13 00:15:15;;;;;;;4.00;2.25;;;;;;;21.27;100.00;96576.81;5058127;28;20218;-72
2023/08/13 00:17:41;;;;;;;4.43;2.53;;;;;;;21.35;100.00;96578.31;5064179;28;20343;-71
2023/08/13 00:20:10;;;;;;;4.85;2.25;;;;;;;21.52;100.00;96575.50;5062867;28;20683;-71
2023/08/13 00:22:37;;;;;;;2.53;1.98;;;;;;;21.59;100.00;96580.75;5058352;28;20196;-71
2023/08/13 00:25:05;;;;;;;4.03;1.77;;;;;;;21.55;100.00;96574.22;5061331;28;20233;-71
2023/08/13 00:27:32;;;;;;;3.53;1.92;;;;;;;21.33;100.00;96573.16;5065188;28;20208;-71
2023/08/13 00:29:58;;;;;;;4.15;1.98;;;;;;;21.38;100.00;96573.28;5060458;28;20251;-71
2023/08/13 00:32:25;;;;;;;4.82;2.38;;;;;;;21.31;100.00;96572.59;5059785;28;20568;-71
2023/08/13 00:34:51;;;;;;;4.80;2.03;;;;;;;21.37;100.00;96566.28;5061109;28;20224;-71
2023/08/13 00:37:18;;;;;;;5.38;2.35;;;;;;;21.18;100.00;96572.84;5064240;28;20207;-71
2023/08/13 00:39:45;;;;;;;6.53;2.72;;;;;;;21.30;100.00;96576.31;5064249;28;20291;-71
2023/08/13 00:42:12;;;;;;;5.70;2.53;;;;;;;21.19;100.00;96582.50;5064958;28;20215;-71
2023/08/13 00:44:39;;;;;;;5.60;2.60;;;;;;;21.18;100.00;96572.84;5063014;28;20227;-71
2023/08/13 00:47:06;;;;;;;4.60;2.47;;;;;;;21.22;100.00;96584.72;5061213;28;20204;-71
2023/08/13 00:49:33;;;;;;;6.35;2.72;;;;;;;21.22;100.00;96576.69;5063374;28;20200;-71
2023/08/13 00:52:00;;;;;;;4.20;2.40;;;;;;;21.24;100.00;96571.88;5057561;28;20219;-71
2023/08/13 00:54:27;;;;;;;4.75;2.42;;;;;;;21.16;100.00;96576.81;5058019;28;20228;-72
2023/08/13 00:56:55;;;;;;;4.72;2.38;;;;;;;21.35;100.00;96579.13;5061491;28;20557;-72
2023/08/13 00:59:22;;;;;;;5.88;2.33;;;;;;;21.20;100.00;96568.03;5057685;28;20200;-72
2023/08/13 01:01:48;;;;;;;6.53;2.70;;;;;;;21.12;100.00;96572.97;5062099;28;20205;-72
2023/08/13 01:04:15;;;;;;;5.72;3.17;;;;;;;21.04;100.00;96573.28;5058990;28;20786;-72
2023/08/13 01:06:51;;;;;;;5.38;2.10;;;;;;;21.30;100.00;96564.78;5027326;22;20225;-70
2023/08/13 01:09:30;;;;;;;4.68;1.92;;;;;;;21.22;100.00;96565.97;4995263;28;20305;-70
2023/08/13 01:12:03;;;;;;;5.15;2.42;;;;;;;21.11;100.00;96565.97;4995992;28;20226;-70
2023/08/13 01:14:36;;;;;;;4.63;2.65;;;;;;;21.09;100.00;96568.88;4992149;28;20254;-70
2023/08/13 01:17:04;;;;;;;4.78;2.35;;;;;;;20.84;100.00;96565.59;4990612;28;20238;-69
2023/08/13 01:19:31;;;;;;;4.53;2.65;;;;;;;20.84;100.00;96562.13;4988323;28;20731;-70
2023/08/13 01:21:57;;;;;;;4.10;2.08;;;;;;;20.78;100.00;96568.41;4988559;28;20207;-69
2023/08/13 01:24:25;;;;;;;5.55;2.03;;;;;;;20.96;100.00;96569.13;4987792;28;20203;-70
2023/08/13 01:27:02;;;;;;;6.25;2.40;;;;;;;20.84;100.00;96570.97;4988923;28;20235;-69
2023/08/13 01:29:42;;;;;;;1.92;1.60;;;;;;;20.78;100.00;96575.63;4987901;28;20678;-69
2023/08/13 01:32:12;;;;;;;3.53;1.98;;;;;;;20.72;100.00;96565.81;4988277;28;20221;-69
2023/08/13 01:34:39;;;;;;;4.95;2.08;;;;;;;20.68;100.00;96567.31;4987817;28;20598;-69
2023/08/13 01:37:06;;;;;;;4.85;2.28;;;;;;;20.72;100.00;96573.84;4988237;28;20227;-69
2023/08/13 01:39:34;;;;;;;3.78;2.00;;;;;;;20.72;100.00;96568.47;4988107;28;20199;-69
2023/08/13 01:42:01;;;;;;;3.42;1.98;;;;;;;20.52;100.00;96571.50;4987908;28;20203;-70
2023/08/13 01:44:27;;;;;;;4.47;2.40;;;;;;;20.57;100.00;96568.94;4988122;28;20522;-70
2023/08/13 01:46:54;;;;;;;4.57;2.15;;;;;;;20.54;100.00;96569.38;4987815;28;20230;-69
2023/08/13 01:49:20;;;;;;;6.18;2.45;;;;;;;20.58;100.00;96565.22;4987829;28;20218;-69
2023/08/13 01:51:47;;;;;;;4.68;2.45;;;;;;;20.54;100.00;96566.69;4988290;28;20206;-70
2023/08/13 01:54:14;;;;;;;5.55;2.00;;;;;;;20.61;100.00;96564.75;4987531;28;20210;-70
2023/08/13 01:56:42;;;;;;;3.90;2.30;;;;;;;20.65;100.00;96565.09;4988224;28;20215;-70
2023/08/13 01:59:09;;;;;;;3.25;2.10;;;;;;;20.51;100.00;96563.69;4987733;28;20223;-69
2023/08/13 02:01:35;;;;;;;4.78;2.58;;;;;;;20.43;100.00;96555.97;4988024;28;20199;-70
2023/08/13 02:04:02;;;;;;;3.38;2.33;;;;;;;20.42;100.00;96557.03;4987411;28;20210;-70
2023/08/13 02:06:30;;;;;;;4.55;2.40;;;;;;;20.37;100.00;96556.91;4987734;28;20231;-70
2023/08/13 02:08:56;;;;;;;7.55;2.53;;;;;;;20.28;100.00;96558.28;4987635;28;20693;-69
2023/08/13 02:11:23;;;;;;;5.82;2.30;;;;;;;20.47;100.00;96554.50;4988373;28;20199;-69
2023/08/13 02:13:51;;;;;;;4.15;2.28;;;;;;;20.48;100.00;96553.41;4987525;28;20245;-70
2023/08/13 02:16:17;;;;;;;3.13;2.03;;;;;;;20.33;100.00;96547.72;4991071;28;20596;-70
2023/08/13 02:18:44;;;;;;;3.92;2.00;;;;;;;20.32;100.00;96544.19;4991427;28;20203;-69
2023/08/13 02:21:10;;;;;;;3.83;2.08;;;;;;;20.18;100.00;96537.41;4991716;28;20218;-69
2023/08/13 02:23:37;;;;;;;4.38;2.15;;;;;;;20.11;100.00;96545.78;4991649;28;20203;-70
2023/08/13 02:26:03;;;;;;;3.78;1.80;;;;;;;20.09;100.00;96543.31;4991487;28;20235;-70
2023/08/13 02:28:30;;;;;;;3.80;2.00;;;;;;;20.03;100.00;96546.09;4991657;28;20589;-69
2023/08/13 02:30:58;;;;;;;5.63;2.20;;;;;;;20.15;100.00;96547.78;4990953;28;20203;-69
2023/08/13 02:33:24;;;;;;;3.60;2.00;;;;;;;20.01;100.00;96551.69;4991064;28;20671;-70
2023/08/13 02:35:51;;;;;;;2.92;2.15;;;;;;;20.03;100.00;96552.25;4991196;28;20215;-69
2023/08/13 02:38:18;;;;;;;6.80;2.05;;;;;;;20.11;100.00;96554.63;4991795;28;20207;-69
2023/08/13 02:40:45;;;;;;;4.85;2.00;;;;;;;20.08;100.00;96556.94;4991252;28;20301;-70
2023/08/13 02:43:11;;;;;;;3.13;2.00;;;;;;;19.94;100.00;96560.84;4991652;28;20203;-68
2023/08/13 02:46:17;;;;;;;2.50;1.85;;;;;;;20.34;100.00;96544.78;4991150;28;20702;-70
2023/08/13 02:48:46;;;;;;;4.07;2.00;;;;;;;20.01;100.00;96543.66;4990120;28;20203;-70
2023/08/13 02:51:12;;;;;;;8.32;1.92;;;;;;;20.00;100.00;96542.03;4990881;28;20203;-70
2023/08/13 02:53:39;;;;;;;3.30;1.92;;;;;;;19.80;100.00;96544.09;4988411;28;20207;-70
2023/08/13 02:56:06;;;;;;;5.07;2.22;;;;;;;19.86;100.00;96545.88;4991541;28;21062;-68
2023/08/13 02:58:32;;;;;;;2.85;1.63;;;;;;;19.89;100.00;96537.41;4991238;28;20203;-70
2023/08/13 03:01:00;;;;;;;2.33;1.60;;;;;;;19.98;100.00;96535.25;4991145;28;20214;-69
2023/08/13 03:03:26;;;;;;;3.47;1.98;;;;;;;19.98;100.00;96540.63;4990561;28;20803;-69
2023/08/13 03:05:54;;;;;;;4.50;2.05;;;;;;;20.13;100.00;96533.78;4990718;28;21262;-69
2023/08/13 03:08:21;;;;;;;2.33;1.60;;;;;;;20.02;100.00;96531.91;4990660;28;20210;-69
2023/08/13 03:10:48;;;;;;;2.85;1.80;;;;;;;19.93;100.00;96530.56;4991041;28;20215;-69
2023/08/13 03:13:14;;;;;;;5.53;2.13;;;;;;;19.92;100.00;96528.97;4990072;28;20279;-69
2023/08/13 03:15:41;;;;;;;3.92;1.95;;;;;;;19.96;100.00;96524.78;4991011;28;20233;-70
2023/08/13 03:18:08;;;;;;;2.97;1.75;;;;;;;19.92;100.00;96515.59;4990351;28;20702;-70
2023/08/13 03:20:34;;;;;;;3.40;1.98;;;;;;;19.88;100.00;96516.22;4991310;28;20199;-69
2023/08/13 03:23:03;;;;;;;2.78;1.70;;;;;;;20.01;100.00;96522.25;4990768;28;20547;-70
2023/08/13 03:25:29;;;;;;;3.10;1.67;;;;;;;19.84;100.00;96515.88;4990177;28;20234;-69
2023/08/13 03:27:56;;;;;;;3.67;2.03;;;;;;;19.90;100.00;96527.53;4990627;28;20207;-69
2023/08/13 03:30:22;;;;;;;4.72;2.13;;;;;;;19.93;100.00;96521.75;4990289;28;20208;-69
2023/08/13 03:32:49;;;;;;;4.40;1.92;;;;;;;19.86;100.00;96519.13;4990696;28;20207;-69
2023/08/13 03:35:16;;;;;;;5.97;1.77;;;;;;;19.88;100.00;96518.91;4990097;28;20217;-68
2023/08/13 03:37:42;;;;;;;3.88;1.88;;;;;;;19.74;100.00;96529.00;4990234;28;20199;-69
2023/08/13 03:40:11;;;;;;;5.57;2.15;;;;;;;19.93;100.00;96527.09;4989740;28;20203;-69
2023/08/13 03:42:38;;;;;;;5.20;2.55;;;;;;;19.75;100.00;96516.41;4990584;28;20286;-68
2023/08/13 03:45:05;;;;;;;4.30;2.13;;;;;;;19.82;100.00;96522.50;4989879;28;20959;-68
2023/08/13 03:47:32;;;;;;;2.63;1.85;;;;;;;19.72;100.00;96519.56;4990512;28;20238;-68
2023/08/13 03:49:58;;;;;;;2.78;1.90;;;;;;;19.67;100.00;96533.59;4989927;28;20210;-69
2023/08/13 03:52:25;;;;;;;3.55;2.00;;;;;;;19.57;100.00;96542.38;4989938;28;20214;-69
2023/08/13 03:54:51;;;;;;;5.63;2.80;;;;;;;19.62;100.00;96535.31;4989569;28;20210;-69
2023/08/13 03:57:19;;;;;;;7.13;2.50;;;;;;;19.56;100.00;96524.72;4989487;28;20219;-68
2023/08/13 03:59:46;;;;;;;7.70;1.83;;;;;;;19.57;100.00;96526.34;4989230;28;20207;-69
2023/08/13 04:02:12;;;;;;;4.07;2.13;;;;;;;19.56;100.00;96524.72;4989883;28;20203;-68
2023/08/13 04:04:39;;;;;;;4.07;2.40;;;;;;;19.48;100.00;96533.03;4990090;28;20196;-69
2023/08/13 04:07:05;;;;;;;3.25;1.70;;;;;;;19.66;100.00;96521.25;4990095;28;20713;-69
2023/08/13 04:09:32;;;;;;;4.00;1.90;;;;;;;19.70;100.00;96514.44;4989449;28;20203;-68
2023/08/13 04:11:58;;;;;;;5.38;2.60;;;;;;;19.68;100.00;96524.53;4989974;28;20207;-69
2023/08/13 04:14:26;;;;;;;2.80;1.73;;;;;;;19.80;100.00;96530.72;4988431;28;20260;-69
2023/08/13 04:16:53;;;;;;;3.30;1.92;;;;;;;19.78;100.00;96530.16;4976854;28;20865;-68
2023/08/13 04:19:19;;;;;;;2.25;1.50;;;;;;;19.74;100.00;96530.81;4976885;28;20207;-69
2023/08/13 04:21:46;;;;;;;3.92;1.75;;;;;;;19.76;100.00;96534.91;4979786;28;20203;-69
2023/08/13 04:24:13;;;;;;;2.90;1.70;;;;;;;19.75;100.00;96546.63;4988083;28;20203;-69
2023/08/13 04:26:39;;;;;;;3.33;1.70;;;;;;;19.79;100.00;96544.34;4989077;28;20223;-68
2023/08/13 04:29:06;;;;;;;5.88;2.17;;;;;;;19.71;100.00;96541.97;4988652;28;20210;-69
2023/08/13 04:31:33;;;;;;;3.63;2.10;;;;;;;19.98;100.00;96545.97;4988378;28;20685;-68
2023/08/13 04:34:00;;;;;;;3.33;2.05;;;;;;;20.00;100.00;96544.69;4988516;28;20208;-68
2023/08/13 04:36:26;;;;;;;5.57;2.42;;;;;;;19.92;100.00;96542.34;4988202;28;20211;-69
2023/08/13 04:38:53;;;;;;;3.15;2.30;;;;;;;20.09;100.00;96531.81;4988038;28;20369;-68
2023/08/13 04:41:19;;;;;;;3.00;1.90;;;;;;;20.11;100.00;96541.25;4988686;28;20217;-68
2023/08/13 04:43:46;;;;;;;4.63;2.35;;;;;;;20.27;100.00;96537.91;4989150;28;20209;-68
2023/08/13 04:46:12;;;;;;;4.45;2.25;;;;;;;20.35;100.00;96537.56;4988325;28;20241;-69
2023/08/13 04:48:45;;;;;;;3.28;1.92;;;;;;;20.66;100.00;96545.28;4989263;28;20203;-68
2023/08/13 04:51:12;;;;;;;3.28;2.00;;;;;;;20.42;100.00;96543.66;4988901;28;20235;-68
2023/08/13 04:53:38;;;;;;;3.28;2.05;;;;;;;20.45;100.00;96543.19;4988633;28;20203;-68
2023/08/13 04:56:06;;;;;;;4.22;2.22;;;;;;;20.48;100.00;96537.34;4988714;28;20710;-69
2023/08/13 04:58:32;;;;;;;3.50;2.08;;;;;;;20.61;100.00;96553.19;4988959;28;20204;-69
2023/08/13 05:00:59;;;;;;;5.57;2.65;;;;;;;20.50;100.00;96551.34;4989026;28;20211;-69
2023/08/13 05:03:25;;;;;;;3.70;2.55;;;;;;;20.60;100.00;96551.59;4988387;28;20203;-68
2023/08/13 05:05:53;;;;;;;6.30;2.60;;;;;;;20.80;100.00;96538.69;4988186;28;20245;-69
2023/08/13 05:08:20;;;;;;;4.13;2.10;;;;;;;20.58;100.00;96529.56;4988634;28;20724;-68
2023/08/13 05:10:47;;;;;;;28.42;3.83;;;;;;;20.60;100.00;96525.63;4988660;28;20294;-68
2023/08/13 05:13:14;;;;;;;4.63;1.85;;;;;;;20.45;100.00;96529.78;4988561;28;20203;-68
2023/08/13 05:15:41;;;;;;;4.20;2.25;;;;;;;20.43;100.00;96529.19;4988395;28;20231;-69
2023/08/13 05:18:08;;;;;;;3.95;1.92;;;;;;;20.55;100.00;96532.72;4989061;28;20587;-69
2023/08/13 05:20:34;;;;;;;4.00;2.13;;;;;;;20.67;100.00;96536.22;4988699;28;20213;-68
2023/08/13 05:23:02;;;;;;;3.67;1.80;;;;;;;20.81;100.00;96533.09;4988737;28;20203;-69
2023/08/13 05:25:29;;;;;;;7.25;2.97;;;;;;;20.80;100.00;96536.03;4988071;28;20698;-68
2023/08/13 05:27:56;;;;;;;6.45;2.00;;;;;;;20.73;100.00;96524.63;4988497;28;20653;-69
2023/08/13 05:30:22;;;;;;;3.60;1.90;;;;;;;20.69;100.00;96526.09;4988281;28;20288;-69
2023/08/13 05:32:50;;;;;;;4.70;2.45;;;;;;;20.75;100.00;96523.34;4988347;28;20679;-68
2023/08/13 05:35:17;;;;;;;5.13;2.72;;;;;;;20.73;100.00;96520.06;4987782;28;20261;-69
2023/08/13 05:37:43;;;;;;;4.40;2.13;;;;;;;20.77;100.00;96520.41;4988679;28;20203;-69
2023/08/13 05:40:12;;;;;;;4.35;2.17;;;;;;;21.17;100.00;96514.91;4988679;28;20210;-69
2023/08/13 05:42:38;;;;;;;3.90;2.58;;;;;;;20.96;100.00;96518.22;4988618;28;20582;-69
2023/08/13 05:45:06;;;;;;;6.28;2.58;;;;;;;20.98;100.00;96513.41;4988137;28;20205;-68
2023/08/13 05:47:32;;;;;;;5.75;3.00;;;;;;;20.98;100.00;96526.81;4988641;28;20235;-70
2023/08/13 05:49:59;;;;;;;6.05;3.17;;;;;;;21.11;100.00;96515.84;4988227;28;20203;-68
2023/08/13 05:52:28;;;;;;;4.30;2.67;;;;;;;21.34;100.00;96528.41;4987698;28;20209;-68
2023/08/13 05:54:54;;;;;;;10.48;3.17;;;;;;;21.48;100.00;96527.91;4987750;28;20207;-69
2023/08/13 05:57:22;;;;;;;7.07;3.35;;;;;;;21.68;100.00;96523.00;4987886;28;20258;-68
2023/08/13 05:59:49;;;;;;;5.88;3.45;;;;;;;21.67;100.00;96508.75;4988272;28;20209;-69
2023/08/13 06:02:16;;;;;;;5.82;3.40;;;;;;;21.73;100.00;96515.84;4986314;28;20199;-68
2023/08/13 06:04:42;;;;;;;6.35;3.38;;;;;;;21.67;100.00;96518.69;4987103;28;20298;-68
2023/08/13 06:07:09;;;;;;;5.80;2.88;;;;;;;21.75;100.00;96523.66;4986378;28;20733;-69
2023/08/13 06:09:35;;;;;;;5.88;2.92;;;;;;;21.90;100.00;96529.31;4987939;28;20210;-69
2023/08/13 06:12:02;;;;;;;6.25;2.92;;;;;;;22.03;100.00;96529.03;4987377;28;20214;-68
2023/08/13 06:14:30;;;;;;;5.63;3.05;;;;;;;22.28;100.00;96527.63;4987304;28;20298;-68
2023/08/13 06:16:56;;;;;;;8.00;2.95;;;;;;;22.21;100.00;96527.75;4987079;28;20222;-69
2023/08/13 06:19:23;;;;;;;6.90;2.72;;;;;;;22.29;100.00;96538.13;4987967;28;20203;-68
2023/08/13 06:21:49;;;;;;;5.03;2.97;;;;;;;22.41;100.00;96540.75;4987560;28;20227;-69
2023/08/13 06:24:16;;;;;;;4.07;2.13;;;;;;;22.46;100.00;96536.28;4987906;28;20199;-68
2023/08/13 06:26:43;;;;;;;5.28;3.10;;;;;;;22.47;100.00;96543.28;4987451;28;20706;-69
2023/08/13 06:29:09;;;;;;;7.85;3.30;;;;;;;22.58;100.00;96547.78;4988009;28;20207;-69
2023/08/13 06:31:37;;;;;;;9.00;3.40;;;;;;;22.56;100.00;96549.06;4987793;28;20199;-69
2023/08/13 06:34:04;;;;;;;5.80;2.95;;;;;;;22.43;100.00;96552.06;4987575;28;20632;-69
2023/08/13 06:36:31;;;;;;;5.30;2.97;;;;;;;22.35;100.00;96555.97;4987743;28;20285;-69
2023/08/13 06:38:57;;;;;;;7.00;3.55;;;;;;;22.58;100.00;96545.09;4987756;28;20290;-69
2023/08/13 06:41:24;;;;;;;5.30;3.22;;;;;;;22.79;100.00;96547.03;4987458;28;20678;-70
2023/08/13 06:43:50;;;;;;;5.03;2.42;;;;;;;23.08;100.00;96545.91;4987434;28;20243;-69
2023/08/13 06:46:16;;;;;;;5.78;3.15;;;;;;;23.30;100.00;96540.28;4987514;28;20223;-69
2023/08/13 06:48:44;;;;;;;5.57;2.45;;;;;;;23.58;100.00;96536.66;4987634;28;20234;-69
2023/08/13 06:51:11;;;;;;;5.30;3.08;;;;;;;23.56;100.00;96539.59;4987570;28;20203;-69
2023/08/13 06:53:38;;;;;;;5.20;3.17;;;;;;;23.59;100.00;96543.66;4986690;28;20195;-70
2023/08/13 06:56:05;;;;;;;4.65;2.70;;;;;;;23.88;100.00;96537.84;4987599;28;20307;-69
2023/08/13 06:58:31;;;;;;;6.75;2.95;;;;;;;23.98;100.00;96532.56;4987590;28;20206;-69
2023/08/13 07:00:58;;;;;;;6.75;2.95;;;;;;;23.92;100.00;96546.22;4988078;28;20211;-70
2023/08/13 07:03:24;;;;;;;5.85;3.00;;;;;;;24.12;100.00;96563.41;4990947;28;20682;-69
2023/08/13 07:05:52;;;;;;;5.15;2.53;;;;;;;24.29;100.00;96566.84;4990929;28;20235;-69
2023/08/13 07:10:46;;;;;;;4.30;2.47;;;;;;;24.23;100.00;96563.28;5019175;28;20676;-72
2023/08/13 07:13:13;;;;;;;6.25;3.08;;;;;;;23.64;100.00;96574.13;5029075;28;20216;-74
2023/08/13 07:15:39;;;;;;;6.60;3.13;;;;;;;23.49;100.00;96565.84;5032721;28;20202;-74
2023/08/13 07:18:07;;;;;;;6.07;3.47;;;;;;;23.21;100.00;96569.75;5039980;28;20221;-74
2023/08/13 07:20:33;;;;;;;7.38;3.35;;;;;;;23.13;100.00;96560.22;5041793;28;20267;-74
2023/08/13 07:23:03;;;;;;;7.50;3.53;;;;;;;23.26;100.00;96551.81;5038988;28;20215;-73
2023/08/13 07:25:30;;;;;;;5.00;2.97;;;;;;;22.97;100.00;96557.53;5040237;28;20201;-74
2023/08/13 07:27:56;;;;;;;7.10;3.67;;;;;;;22.91;100.00;96551.28;5043184;28;20229;-73
2023/08/13 07:30:23;;;;;;;6.63;3.20;;;;;;;22.89;100.00;96556.06;5043062;28;21005;-73
2023/08/13 07:32:49;;;;;;;6.07;2.95;;;;;;;22.90;100.00;96570.34;5042687;28;21023;-74
2023/08/13 07:35:16;;;;;;;7.22;3.97;;;;;;;23.01;100.00;96566.75;5043648;28;20211;-73
2023/08/13 07:37:42;;;;;;;7.95;3.10;;;;;;;23.01;100.00;96562.19;5041909;28;20225;-74
2023/08/13 07:40:12;;;;;;;5.03;3.30;;;;;;;23.26;100.00;96575.22;5043567;28;20583;-74
2023/08/13 07:42:38;;;;;;;8.95;3.70;;;;;;;23.13;100.00;96576.38;5037477;28;20213;-74
2023/08/13 07:45:06;;;;;;;10.55;3.80;;;;;;;23.20;100.00;96570.81;5038596;28;20205;-73
2023/08/13 07:47:37;;;;;;;17.00;3.55;;;;;;;23.55;100.00;96570.25;5041046;28;20239;-73
2023/08/13 07:50:05;;;;;;;7.93;2.97;;;;;;;23.32;100.00;96556.22;5038537;28;20215;-74
2023/08/13 07:52:31;;;;;;;6.53;3.30;;;;;;;23.32;100.00;96557.00;5034970;28;20206;-73
2023/08/13 07:54:58;;;;;;;5.13;2.72;;;;;;;23.25;100.00;96552.88;5032320;28;20201;-73
2023/08/13 07:57:26;;;;;;;7.18;3.53;;;;;;;23.56;100.00;96553.03;5031874;28;20218;-72
2023/08/13 07:59:53;;;;;;;7.95;3.70;;;;;;;23.63;100.00;96548.28;5033029;28;20676;-72
2023/08/13 08:02:19;;;;;;;7.03;3.13;;;;;;;23.77;100.00;96540.69;5027560;28;20198;-73
2023/08/13 08:04:47;;;;;;;4.28;2.00;;;;;;;24.11;100.00;96538.38;5020034;28;20202;-73
2023/08/13 08:07:14;;;;;;;6.13;2.50;;;;;;;24.25;100.00;96544.16;5028035;28;20229;-73
2023/08/13 08:09:40;;;;;;;6.20;3.60;;;;;;;24.44;100.00;96546.28;5031684;28;20218;-73
2023/08/13 08:12:07;;;;;;;5.53;2.58;;;;;;;24.63;100.00;96544.81;5031453;28;20208;-73
2023/08/13 08:14:34;;;;;;;5.28;3.15;;;;;;;24.75;100.00;96548.97;5037283;28;20324;-73
2023/08/13 08:17:05;;;;;;;6.35;3.22;;;;;;;24.61;100.00;96537.00;5043461;28;20221;-73
2023/08/13 08:19:32;;;;;;;6.93;3.22;;;;;;;24.88;100.00;96528.88;5043589;28;20291;-73
2023/08/13 08:21:58;;;;;;;5.70;3.15;;;;;;;24.99;100.00;96523.28;5040177;28;20604;-72
2023/08/13 08:24:25;;;;;;;5.45;2.95;;;;;;;25.41;100.00;96530.31;5044422;28;20201;-73
2023/08/13 08:26:52;;;;;;;7.15;3.65;;;;;;;25.47;100.00;96539.25;5040703;28;20217;-73
2023/08/13 08:29:18;;;;;;;8.40;2.22;;;;;;;25.68;100.00;96535.59;5043217;28;20226;-73
2023/08/13 08:31:46;;;;;;;5.68;2.50;;;;;;;25.90;100.00;96539.75;5039674;28;20785;-73
2023/08/13 08:34:13;;;;;;;5.88;3.17;;;;;;;25.80;100.00;96538.91;5036746;28;20194;-73
2023/08/13 08:36:39;;;;;;;7.32;4.05;;;;;;;25.57;100.00;96528.50;5041246;28;20222;-73
2023/08/13 08:39:06;;;;;;;5.03;2.70;;;;;;;25.41;100.00;96524.13;5037909;28;20664;-73
2023/08/13 08:41:36;;;;;;;5.28;2.85;;;;;;;25.55;100.00;96515.28;5042595;28;20202;-73
2023/08/13 08:44:03;;;;;;;5.78;2.50;;;;;;;25.89;100.00;96520.03;5035757;28;20201;-73
2023/08/13 08:46:30;;;;;;;4.82;2.92;;;;;;;26.02;100.00;96519.53;5030288;28;21076;-73
2023/08/13 08:49:00;;;;;;;5.65;3.00;;;;;;;26.52;100.00;96512.34;5030628;28;20222;-73
2023/08/13 08:51:27;;;;;;;5.90;3.17;;;;;;;26.17;100.00;96513.34;5030366;28;20206;-73
2023/08/13 08:53:54;;;;;;;5.82;3.38;;;;;;;26.45;100.00;96528.03;5030547;28;20212;-74
2023/08/13 08:56:24;;;;;;;4.13;2.30;;;;;;;26.86;100.00;96518.00;5030023;28;20201;-74
2023/08/13 08:58:50;;;;;;;6.88;2.95;;;;;;;26.83;100.00;96532.09;5036854;28;20614;-74
2023/08/13 09:01:17;;;;;;;4.95;2.80;;;;;;;26.76;100.00;96529.66;5040351;28;20205;-75
2023/08/13 09:03:43;;;;;;;4.88;2.80;;;;;;;26.67;100.00;96520.47;5031777;28;20210;-76
2023/08/13 09:06:11;;;;;;;5.53;2.70;;;;;;;27.11;100.00;96519.66;5031889;28;20581;-73
2023/08/13 09:08:38;;;;;;;3.92;2.40;;;;;;;26.83;100.00;96513.16;5031590;28;20780;-74
2023/08/13 09:11:04;;;;;;;3.05;2.00;;;;;;;26.76;100.00;96515.34;5033293;28;20660;-74
2023/08/13 09:13:31;;;;;;;5.13;2.55;;;;;;;26.85;100.00;96516.41;5030436;28;20197;-75
2023/08/13 09:15:58;;;;;;;4.05;2.30;;;;;;;26.70;100.00;96509.09;5042933;28;20212;-75
2023/08/13 09:18:24;;;;;;;3.30;2.13;;;;;;;26.94;100.00;96507.47;5041248;28;20219;-73
2023/08/13 09:20:51;;;;;;;6.45;2.00;;;;;;;27.24;100.00;96505.56;5030280;28;20212;-76
2023/08/13 09:23:23;;;;;;;4.28;2.50;;;;;;;27.79;100.00;96502.72;5025401;28;20205;-75
2023/08/13 09:25:53;;;;;;;15.95;6.80;;;;;;;27.97;100.00;96494.75;5035980;28;20212;-75
2023/08/13 09:28:20;;;;;;;5.47;2.53;;;;;;;27.78;100.00;96492.94;5036961;28;20641;-76
2023/08/13 09:30:47;;;;;;;12.02;6.10;;;;;;;27.93;100.00;96488.28;5042950;28;20205;-74
2023/08/13 09:33:16;;;;;;;6.32;3.10;;;;;;;28.18;100.00;96485.44;5043625;28;20204;-76
2023/08/13 09:35:43;;;;;;;4.70;3.05;;;;;;;28.54;100.00;96484.13;5036149;28;20219;-75
2023/08/13 09:38:13;;;;;;;4.55;2.80;;;;;;;28.56;100.00;96476.50;5043489;28;20224;-75
2023/08/13 09:40:45;;;;;;;7.38;4.38;;;;;;;28.62;100.00;96475.38;5035362;28;20213;-75
2023/08/13 09:43:14;;;;;;;7.53;2.95;;;;;;;28.40;100.00;96473.09;5038280;28;20691;-75
2023/08/13 09:45:44;;;;;;;3.40;2.05;;;;;;;29.32;100.00;96467.44;5036220;28;20205;-74
2023/08/13 09:48:15;;;;;;;14.57;3.92;;;;;;;29.58;100.00;96464.94;5043280;28;20235;-75
2023/08/13 09:50:42;;;;;;;7.93;4.38;;;;;;;28.82;100.00;96464.34;5034327;28;20201;-74
2023/08/13 09:53:14;;;;;;;13.80;6.75;;;;;;;29.22;100.00;96467.50;5031401;28;20202;-73
2023/08/13 09:55:48;;;;;;;30.55;12.20;;;;;;;28.92;100.00;96467.81;5029260;28;21072;-73
2023/08/13 09:58:18;;;;;;;13.27;6.97;;;;;;;28.95;100.00;96470.75;5031897;28;20240;-72
2023/08/13 10:00:46;;;;;;;16.55;6.18;;;;;;;29.22;100.00;96467.50;5029761;28;20664;-72
2023/08/13 10:03:13;;;;;;;5.15;3.08;;;;;;;29.64;97.80;96468.38;5031154;28;20205;-74
2023/08/13 10:05:41;;;;;;;4.38;2.40;;;;;;;29.82;94.16;96468.41;5030842;28;20220;-74
2023/08/13 10:08:08;;;;;;;4.10;2.03;;;;;;;29.35;95.75;96466.84;5037647;28;20574;-74
2023/08/13 10:10:35;;;;;;;5.55;2.30;;;;;;;28.83;97.53;96466.81;5044408;28;20206;-75
2023/08/13 10:13:04;;;;;;;6.75;1.75;;;;;;;29.13;95.11;96466.50;5043383;28;20562;-74
2023/08/13 10:15:32;;;;;;;5.40;2.30;;;;;;;28.94;94.85;96460.19;5043570;28;20668;-73
2023/08/13 10:17:59;;;;;;;4.15;1.85;;;;;;;28.95;88.53;96459.88;5042764;28;20738;-74
2023/08/13 10:20:26;;;;;;;4.03;1.80;;;;;;;28.80;89.96;96458.44;5035674;28;20205;-74
2023/08/13 10:22:54;;;;;;;3.00;1.35;;;;;;;28.94;95.32;96455.53;5031895;28;20206;-73
2023/08/13 10:25:28;;;;;;;4.20;1.52;;;;;;;29.25;93.83;96456.88;5039994;28;20203;-74
2023/08/13 10:27:55;;;;;;;3.50;1.60;;;;;;;29.12;95.13;96462.16;5041108;28;20221;-74
2023/08/13 10:30:23;;;;;;;4.10;1.40;;;;;;;29.06;91.41;96460.59;5039583;28;20298;-74
2023/08/13 10:32:51;;;;;;;2.00;1.33;;;;;;;28.90;89.11;96464.56;5042380;28;20308;-74
2023/08/13 10:35:23;;;;;;;2.45;1.73;;;;;;;28.60;97.53;96459.38;5031203;28;20205;-73
2023/08/13 10:37:51;;;;;;;4.50;1.55;;;;;;;28.42;99.47;96451.13;5034866;28;20221;-74
2023/08/13 10:40:18;;;;;;;4.95;2.22;;;;;;;28.56;100.00;96455.59;5030400;28;20205;-72
2023/08/13 10:42:50;;;;;;;2.20;1.52;;;;;;;29.13;95.87;96445.59;5033464;28;20201;-74
2023/08/13 10:45:18;;;;;;;4.72;1.98;;;;;;;28.64;100.00;96449.59;5047364;28;20208;-73
2023/08/13 10:47:51;;;;;;;7.07;2.05;;;;;;;28.95;100.00;96438.19;5039545;28;20258;-75
2023/08/13 10:50:31;;;;;;;2.03;1.70;;;;;;;29.43;98.85;96439.88;5043251;28;20652;-74
2023/08/13 10:53:03;;;;;;;2.78;1.50;;;;;;;29.39;96.72;96427.97;5029065;28;20208;-73
2023/08/13 10:55:31;;;;;;;2.83;1.77;;;;;;;28.95;97.80;96429.25;5043857;28;20198;-72
2023/08/13 10:57:58;;;;;;;12.23;2.40;;;;;;;28.53;100.00;96429.06;5042867;28;20221;-74
2023/08/13 11:00:26;;;;;;;3.00;1.90;;;;;;;28.42;100.00;96421.28;5038080;28;20204;-73
2023/08/13 11:02:57;;;;;;;2.72;1.42;;;;;;;28.81;93.69;96431.00;5046519;28;20206;-74
2023/08/13 11:05:24;;;;;;;4.07;2.38;;;;;;;28.40;97.73;96421.56;5044026;28;20204;-75
2023/08/13 11:07:51;;;;;;;2.65;1.95;;;;;;;28.58;100.00;96420.09;5027966;28;20221;-74
2023/08/13 11:10:19;;;;;;;4.40;1.83;;;;;;;28.74;100.00;96418.88;5041845;28;20217;-75
2023/08/13 11:12:46;;;;;;;3.08;1.60;;;;;;;29.07;99.20;96407.94;5047495;28;20207;-74
2023/08/13 11:15:13;;;;;;;2.03;1.42;;;;;;;28.88;98.13;96409.75;5041202;28;20201;-73
2023/08/13 11:17:41;;;;;;;3.42;1.40;;;;;;;29.01;93.57;96409.91;5047896;28;20221;-74
2023/08/13 11:20:10;;;;;;;2.35;1.60;;;;;;;29.24;95.66;96405.56;5041012;28;20201;-74
2023/08/13 11:22:37;;;;;;;4.47;2.45;;;;;;;29.21;96.41;96404.25;5047042;28;20197;-73
2023/08/13 11:25:05;;;;;;;3.15;1.50;;;;;;;29.55;93.96;96412.28;5046880;28;20239;-75
2023/08/13 11:27:31;;;;;;;3.05;1.58;;;;;;;29.69;90.51;96409.34;5037641;28;20232;-73
2023/08/13 11:29:58;;;;;;;4.88;1.70;;;;;;;30.25;96.94;96411.00;5046385;28;20222;-74